createdAt,value
2022-08-26T00:01:56.695Z,3.60
2022-08-26T00:04:25.887Z,3.53
2022-08-26T00:06:54.919Z,3.43
2022-08-26T00:09:25.015Z,3.30
2022-08-26T00:11:54.103Z,3.40
2022-08-26T00:14:21.796Z,3.20
2022-08-26T00:16:49.307Z,3.20
2022-08-26T00:19:21.344Z,2.97
2022-08-26T00:21:50.299Z,3.03
2022-08-26T00:24:21.006Z,3.53
2022-08-26T00:26:49.498Z,3.90
2022-08-26T00:29:17.001Z,3.10
2022-08-26T00:31:45.534Z,4.50
2022-08-26T00:34:15.256Z,3.50
2022-08-26T00:36:43.505Z,3.90
2022-08-26T00:39:11.356Z,3.90
2022-08-26T00:41:40.972Z,3.90
2022-08-26T00:44:11.104Z,3.97
2022-08-26T00:46:47.283Z,4.03
2022-08-26T00:49:31.237Z,3.60
2022-08-26T00:52:01.098Z,3.27
2022-08-26T00:54:33.327Z,4.27
2022-08-26T00:57:15.927Z,3.93
2022-08-26T00:59:52.913Z,3.43
2022-08-26T01:02:21.093Z,3.27
2022-08-26T01:04:59.010Z,3.90
2022-08-26T01:07:31.598Z,3.10
2022-08-26T01:10:02.086Z,2.90
2022-08-26T01:12:38.874Z,3.10
2022-08-26T01:15:13.777Z,3.10
2022-08-26T01:17:41.666Z,3.20
2022-08-26T01:20:42.561Z,3.00
2022-08-26T01:23:11.875Z,3.00
2022-08-26T01:25:49.422Z,4.30
2022-08-26T01:28:24.149Z,3.20
2022-08-26T01:30:53.507Z,3.60
2022-08-26T01:33:26.948Z,2.70
2022-08-26T01:35:54.442Z,3.00
2022-08-26T01:38:21.565Z,3.30
2022-08-26T01:40:51.490Z,3.60
2022-08-26T01:43:27.473Z,3.70
2022-08-26T01:45:57.017Z,3.93
2022-08-26T01:48:29.857Z,3.70
2022-08-26T01:50:58.353Z,3.57
2022-08-26T01:53:27.047Z,3.70
2022-08-26T01:55:59.541Z,3.97
2022-08-26T01:58:39.756Z,3.67
2022-08-26T02:01:07.685Z,3.97
2022-08-26T02:03:50.475Z,3.73
2022-08-26T02:06:19.857Z,3.50
2022-08-26T02:08:55.319Z,3.60
2022-08-26T02:11:22.958Z,3.93
2022-08-26T02:13:57.100Z,2.97
2022-08-26T02:16:28.797Z,3.80
2022-08-26T02:18:57.398Z,3.63
2022-08-26T02:21:24.904Z,3.27
2022-08-26T02:23:52.521Z,3.83
2022-08-26T02:26:26.997Z,3.20
2022-08-26T02:29:38.449Z,3.27
2022-08-26T02:32:09.108Z,2.90
2022-08-26T02:34:36.912Z,3.80
2022-08-26T02:37:10.530Z,3.50
2022-08-26T02:39:40.733Z,4.10
2022-08-26T02:42:08.357Z,3.20
2022-08-26T02:44:36.327Z,3.10
2022-08-26T02:47:03.815Z,3.73
2022-08-26T02:49:33.172Z,3.20
2022-08-26T02:52:01.934Z,3.57
2022-08-26T02:54:29.144Z,3.40
2022-08-26T02:56:56.420Z,3.20
2022-08-26T02:59:24.679Z,3.57
2022-08-26T03:01:52.969Z,3.43
2022-08-26T03:04:25.940Z,3.13
2022-08-26T03:06:55.395Z,3.80
2022-08-26T03:09:23.607Z,3.80
2022-08-26T03:11:52.462Z,3.70
2022-08-26T03:14:19.424Z,3.30
2022-08-26T03:16:48.494Z,3.50
2022-08-26T03:19:15.653Z,3.53
2022-08-26T03:21:45.090Z,3.60
2022-08-26T03:24:15.862Z,3.60
2022-08-26T03:26:52.420Z,4.07
2022-08-26T03:29:40.105Z,3.60
2022-08-26T03:32:08.181Z,3.53
2022-08-26T03:34:35.531Z,3.60
2022-08-26T03:37:03.210Z,3.07
2022-08-26T03:39:31.440Z,3.47
2022-08-26T03:41:58.989Z,3.40
2022-08-26T03:44:26.837Z,3.57
2022-08-26T03:46:54.561Z,3.50
2022-08-26T03:49:22.211Z,3.67
2022-08-26T03:51:49.547Z,3.70
2022-08-26T03:54:17.336Z,3.77
2022-08-26T03:56:46.440Z,3.90
2022-08-26T03:59:13.673Z,3.50
2022-08-26T04:01:41.209Z,3.60
2022-08-26T04:04:08.342Z,3.70
2022-08-26T04:06:39.617Z,3.40
2022-08-26T04:09:11.791Z,3.90
2022-08-26T04:11:40.046Z,4.17
2022-08-26T04:14:17.641Z,3.40
2022-08-26T04:16:48.417Z,3.87
2022-08-26T04:19:18.137Z,3.23
2022-08-26T04:21:47.290Z,3.50
2022-08-26T04:24:16.668Z,3.73
2022-08-26T04:26:45.496Z,3.10
2022-08-26T04:29:18.175Z,3.90
2022-08-26T04:31:47.018Z,4.50
2022-08-26T04:34:15.235Z,4.00
2022-08-26T04:36:43.805Z,4.57
2022-08-26T04:39:12.529Z,4.20
2022-08-26T04:41:40.114Z,4.47
2022-08-26T04:44:07.815Z,4.03
2022-08-26T04:46:35.981Z,3.20
2022-08-26T04:49:09.384Z,4.60
2022-08-26T04:51:37.333Z,3.53
2022-08-26T04:54:07.064Z,3.80
2022-08-26T04:56:41.381Z,3.90
2022-08-26T04:59:16.819Z,4.50
2022-08-26T05:01:48.665Z,3.40
2022-08-26T05:04:19.197Z,4.40
2022-08-26T05:06:48.427Z,4.23
2022-08-26T05:09:20.779Z,3.70
2022-08-26T05:11:52.081Z,3.90
2022-08-26T05:14:22.395Z,4.00
2022-08-26T05:16:49.584Z,4.17
2022-08-26T05:19:19.242Z,3.83
2022-08-26T05:21:48.305Z,4.20
2022-08-26T05:24:17.096Z,4.50
2022-08-26T05:26:45.122Z,3.57
2022-08-26T05:29:13.934Z,4.03
2022-08-26T05:31:40.988Z,3.97
2022-08-26T05:34:08.961Z,3.90
2022-08-26T05:36:37.011Z,4.30
2022-08-26T05:39:06.698Z,4.20
2022-08-26T05:41:38.639Z,3.60
2022-08-26T05:44:09.815Z,3.37
2022-08-26T05:46:38.635Z,3.90
2022-08-26T05:49:12.864Z,3.87
2022-08-26T05:51:46.218Z,3.27
2022-08-26T05:54:21.780Z,3.23
2022-08-26T05:56:52.861Z,4.37
2022-08-26T05:59:21.362Z,3.50
2022-08-26T06:01:51.892Z,3.20
2022-08-26T06:04:19.072Z,3.40
2022-08-26T06:06:47.537Z,3.40
2022-08-26T06:09:14.811Z,3.40
2022-08-26T06:11:45.597Z,3.70
2022-08-26T06:14:12.750Z,3.27
2022-08-26T06:16:45.249Z,3.40
2022-08-26T06:19:15.548Z,4.43
2022-08-26T06:21:47.201Z,3.40
2022-08-26T06:24:36.797Z,3.80
2022-08-26T06:27:09.660Z,3.70
2022-08-26T06:29:38.894Z,3.43
2022-08-26T06:32:06.954Z,3.83
2022-08-26T06:34:35.910Z,4.07
2022-08-26T06:37:03.788Z,4.30
2022-08-26T06:39:32.010Z,3.60
2022-08-26T06:42:00.639Z,3.50
2022-08-26T06:44:28.290Z,3.50
2022-08-26T06:46:55.309Z,3.13
2022-08-26T06:49:27.408Z,2.90
2022-08-26T06:51:59.552Z,3.17
2022-08-26T06:54:30.470Z,2.90
2022-08-26T06:56:58.577Z,3.23
2022-08-26T06:59:26.366Z,2.80
2022-08-26T07:01:54.959Z,2.93
2022-08-26T07:04:23.174Z,2.60
2022-08-26T07:06:53.626Z,2.77
2022-08-26T07:09:30.422Z,2.97
2022-08-26T07:11:58.033Z,2.70
2022-08-26T07:14:26.155Z,2.60
2022-08-26T07:16:54.165Z,2.87
2022-08-26T07:19:30.919Z,2.60
2022-08-26T07:22:05.536Z,2.70
2022-08-26T07:24:37.606Z,3.20
2022-08-26T07:27:08.805Z,2.50
2022-08-26T07:29:39.211Z,2.60
2022-08-26T07:32:07.945Z,2.50
2022-08-26T07:34:35.282Z,2.50
2022-08-26T07:37:03.855Z,2.50
2022-08-26T07:39:31.917Z,2.83
2022-08-26T07:42:07.417Z,2.80
2022-08-26T07:44:37.607Z,2.50
2022-08-26T07:47:10.558Z,3.07
2022-08-26T07:49:54.249Z,3.10
2022-08-26T07:52:26.195Z,2.70
2022-08-26T07:54:54.727Z,3.10
2022-08-26T07:57:21.846Z,2.90
2022-08-26T07:59:51.965Z,2.50
2022-08-26T08:02:21.662Z,2.70
2022-08-26T08:04:48.833Z,2.97
2022-08-26T08:07:16.035Z,2.97
2022-08-26T08:09:43.695Z,3.50
2022-08-26T08:12:14.126Z,2.80
2022-08-26T08:14:45.185Z,3.37
2022-08-26T08:17:15.878Z,2.80
2022-08-26T08:19:43.450Z,3.50
2022-08-26T08:22:17.153Z,3.03
2022-08-26T08:24:44.806Z,3.40
2022-08-26T08:27:11.885Z,3.10
2022-08-26T08:29:39.032Z,3.23
2022-08-26T08:32:06.352Z,3.00
2022-08-26T08:37:10.740Z,2.90
2022-08-26T08:39:37.886Z,2.40
2022-08-26T08:42:38.982Z,2.90
2022-08-26T08:45:37.162Z,2.77
2022-08-26T08:48:31.741Z,3.23
2022-08-26T08:51:36.291Z,2.90
2022-08-26T08:54:04.652Z,2.97
2022-08-26T08:56:55.620Z,2.30
2022-08-26T08:59:32.555Z,3.03
2022-08-26T09:02:30.568Z,2.40
2022-08-26T09:05:05.168Z,2.67
2022-08-26T09:07:50.631Z,2.67
2022-08-26T09:10:40.363Z,2.20
2022-08-26T09:13:16.333Z,2.57
2022-08-26T09:16:32.142Z,2.50
2022-08-26T09:19:33.300Z,2.17
2022-08-26T09:22:04.664Z,2.37
2022-08-26T09:24:42.083Z,2.60
2022-08-26T09:27:38.886Z,3.03
2022-08-26T09:30:06.937Z,2.80
2022-08-26T09:32:35.146Z,2.93
2022-08-26T09:35:33.207Z,3.00
2022-08-26T09:38:00.830Z,2.67
2022-08-26T09:40:36.316Z,3.00
2022-08-26T09:43:23.111Z,2.63
2022-08-26T09:46:10.758Z,2.60
2022-08-26T09:48:41.171Z,2.90
2022-08-26T09:51:24.055Z,3.00
2022-08-26T09:53:55.001Z,2.50
2022-08-26T09:56:27.831Z,2.43
2022-08-26T09:58:56.925Z,3.67
2022-08-26T10:01:23.816Z,2.87
2022-08-26T10:03:52.088Z,2.57
2022-08-26T10:06:21.554Z,2.80
2022-08-26T10:09:00.065Z,3.27
2022-08-26T10:11:51.686Z,3.13
2022-08-26T10:14:34.425Z,2.90
2022-08-26T10:17:26.593Z,3.00
2022-08-26T10:20:24.103Z,3.13
2022-08-26T10:23:16.497Z,3.30
2022-08-26T10:25:53.562Z,2.70
2022-08-26T10:29:01.389Z,3.40
2022-08-26T10:32:21.130Z,3.40
2022-08-26T10:34:48.233Z,2.90
2022-08-26T10:37:21.556Z,2.93
2022-08-26T10:40:36.755Z,2.83
2022-08-26T10:43:20.881Z,2.90
2022-08-26T10:45:59.128Z,3.53
2022-08-26T10:49:06.516Z,3.87
2022-08-26T10:51:42.305Z,3.00
2022-08-26T10:54:40.137Z,3.73
2022-08-26T10:57:35.264Z,2.77
2022-08-26T11:00:44.038Z,2.70
2022-08-26T11:03:40.173Z,3.27
2022-08-26T11:06:19.235Z,3.00
2022-08-26T11:08:52.971Z,3.63
2022-08-26T11:11:50.035Z,3.47
2022-08-26T11:14:29.190Z,2.53
2022-08-26T11:16:58.888Z,3.00
2022-08-26T11:20:01.416Z,3.10
2022-08-26T11:22:32.095Z,3.60
2022-08-26T11:24:58.936Z,3.43
2022-08-26T11:27:26.257Z,3.67
2022-08-26T11:30:07.852Z,3.10
2022-08-26T11:32:34.640Z,3.50
2022-08-26T11:35:06.702Z,3.87
2022-08-26T11:37:59.041Z,3.70
2022-08-26T11:40:33.055Z,3.67
2022-08-26T11:43:23.764Z,3.20
2022-08-26T11:46:07.798Z,3.00
2022-08-26T11:48:44.304Z,3.70
2022-08-26T11:51:22.000Z,3.80
2022-08-26T11:53:49.241Z,3.80
2022-08-26T11:56:33.291Z,3.67
2022-08-26T11:59:07.449Z,4.33
2022-08-26T12:01:40.180Z,3.90
2022-08-26T12:04:12.591Z,3.93
2022-08-26T12:06:51.616Z,4.10
2022-08-26T12:09:31.157Z,4.10
2022-08-26T12:12:22.521Z,3.47
2022-08-26T12:15:03.872Z,5.30
2022-08-26T12:17:31.835Z,3.67
2022-08-26T12:19:58.758Z,3.60
2022-08-26T12:22:35.929Z,4.00
2022-08-26T12:25:08.745Z,3.90
2022-08-26T12:27:45.428Z,3.70
2022-08-26T12:30:26.283Z,4.20
2022-08-26T12:33:19.942Z,3.93
2022-08-26T12:35:54.747Z,4.10
2022-08-26T12:38:26.070Z,4.17
2022-08-26T12:40:53.622Z,4.40
2022-08-26T12:43:45.644Z,3.77
2022-08-26T12:46:27.178Z,3.23
2022-08-26T12:48:54.996Z,3.60
2022-08-26T12:51:30.697Z,3.83
2022-08-26T12:53:58.979Z,4.17
2022-08-26T12:56:32.549Z,3.87
2022-08-26T12:59:25.263Z,3.77
2022-08-26T13:01:54.379Z,4.07
2022-08-26T13:04:41.089Z,4.07
2022-08-26T13:07:26.266Z,3.63
2022-08-26T13:09:58.917Z,4.50
2022-08-26T13:12:37.284Z,3.90
2022-08-26T13:15:06.336Z,4.17
2022-08-26T13:17:35.984Z,3.57
2022-08-26T13:20:04.464Z,3.80
2022-08-26T13:22:31.990Z,3.30
2022-08-26T13:24:59.080Z,3.50
2022-08-26T13:27:27.552Z,3.90
2022-08-26T13:29:57.063Z,3.83
2022-08-26T13:32:27.217Z,3.40
2022-08-26T13:34:56.526Z,4.00
2022-08-26T13:37:34.522Z,4.30
2022-08-26T13:40:05.000Z,3.87
2022-08-26T13:42:32.065Z,3.90
2022-08-26T13:44:59.723Z,3.53
2022-08-26T13:47:27.200Z,3.70
2022-08-26T13:49:56.360Z,3.80
2022-08-26T13:52:30.180Z,3.77
2022-08-26T13:55:00.352Z,4.37
2022-08-26T13:57:30.001Z,4.70
2022-08-26T13:59:58.982Z,4.70
2022-08-26T14:02:27.880Z,5.47
2022-08-26T14:04:56.133Z,4.70
2022-08-26T14:07:23.379Z,4.40
2022-08-26T14:09:50.380Z,4.80
2022-08-26T14:12:18.211Z,4.37
2022-08-26T14:14:45.233Z,4.10
2022-08-26T14:17:21.219Z,4.63
2022-08-26T14:19:50.463Z,4.60
2022-08-26T14:22:21.934Z,4.57
2022-08-26T14:24:50.446Z,3.93
2022-08-26T14:27:17.451Z,4.60
2022-08-26T14:29:44.446Z,5.60
2022-08-26T14:32:25.762Z,4.70
2022-08-26T14:34:54.416Z,6.10
2022-08-26T14:37:22.415Z,5.20
2022-08-26T14:39:49.499Z,5.87
2022-08-26T14:42:22.788Z,6.23
2022-08-26T14:44:56.008Z,5.47
2022-08-26T14:47:23.246Z,4.73
2022-08-26T14:49:50.562Z,5.70
2022-08-26T14:52:18.076Z,5.70
2022-08-26T14:54:45.258Z,5.50
2022-08-26T14:57:14.592Z,5.60
2022-08-26T14:59:50.014Z,5.53
2022-08-26T15:02:32.676Z,5.60
2022-08-26T15:05:02.388Z,4.77
2022-08-26T15:07:29.304Z,5.60
2022-08-26T15:09:56.481Z,5.03
2022-08-26T15:12:23.548Z,5.63
2022-08-26T15:14:50.947Z,5.93
2022-08-26T15:17:18.000Z,5.87
2022-08-26T15:19:44.930Z,6.33
2022-08-26T15:22:11.998Z,5.60
2022-08-26T15:24:38.989Z,5.03
2022-08-26T15:27:06.005Z,5.43
2022-08-26T15:29:36.413Z,5.37
2022-08-26T15:32:04.813Z,4.93
2022-08-26T15:34:32.012Z,5.13
2022-08-26T15:36:59.019Z,5.37
2022-08-26T15:39:26.121Z,5.27
2022-08-26T15:41:53.090Z,5.00
2022-08-26T15:44:20.051Z,5.97
2022-08-26T15:46:49.777Z,5.77
2022-08-26T15:49:18.442Z,5.30
2022-08-26T15:51:48.166Z,5.63
2022-08-26T15:54:17.601Z,5.70
2022-08-26T15:56:45.637Z,5.60
2022-08-26T15:59:17.049Z,5.10
2022-08-26T16:01:44.588Z,5.13
2022-08-26T16:04:11.932Z,5.50
2022-08-26T16:06:41.109Z,5.90
2022-08-26T16:09:08.978Z,5.93
2022-08-26T16:11:37.278Z,5.87
2022-08-26T16:14:06.261Z,6.30
2022-08-26T16:16:33.418Z,5.90
2022-08-26T16:19:06.834Z,5.83
2022-08-26T16:21:34.945Z,6.10
2022-08-26T16:24:02.058Z,7.00
2022-08-26T16:26:34.122Z,6.60
2022-08-26T16:29:04.901Z,6.10
2022-08-26T16:31:32.370Z,5.90
2022-08-26T16:33:59.359Z,7.00
2022-08-26T16:36:26.754Z,6.13
2022-08-26T16:38:56.129Z,6.13
2022-08-26T16:41:25.090Z,6.70
2022-08-26T16:43:53.226Z,7.30
2022-08-26T16:46:23.443Z,6.33
2022-08-26T16:48:52.492Z,6.07
2022-08-26T16:51:26.865Z,6.40
2022-08-26T16:53:55.837Z,6.90
2022-08-26T16:56:34.070Z,8.60
2022-08-26T16:59:04.629Z,7.20
2022-08-26T17:01:31.973Z,7.20
2022-08-26T17:03:59.108Z,6.97
2022-08-26T17:06:26.151Z,7.60
2022-08-26T17:08:53.240Z,7.37
2022-08-26T17:11:20.169Z,7.00
2022-08-26T17:13:47.595Z,7.70
2022-08-26T17:16:15.659Z,8.23
2022-08-26T17:18:42.738Z,7.13
2022-08-26T17:21:12.636Z,8.53
2022-08-26T17:23:41.773Z,8.47
2022-08-26T17:26:11.890Z,7.80
2022-08-26T17:28:39.778Z,9.10
2022-08-26T17:31:08.340Z,10.10
2022-08-26T17:33:35.870Z,9.50
2022-08-26T17:36:07.572Z,9.60
2022-08-26T17:38:36.288Z,9.60
2022-08-26T17:41:07.339Z,8.30
2022-08-26T17:43:34.914Z,8.40
2022-08-26T17:46:06.843Z,8.90
2022-08-26T17:48:37.169Z,9.17
2022-08-26T17:51:14.287Z,9.90
2022-08-26T17:53:42.297Z,8.80
2022-08-26T17:56:12.440Z,8.40
2022-08-26T17:58:40.400Z,9.07
2022-08-26T18:01:07.846Z,8.47
2022-08-26T18:03:35.446Z,8.00
2022-08-26T18:06:07.787Z,6.70
2022-08-26T18:08:34.831Z,7.80
2022-08-26T18:11:02.113Z,8.50
2022-08-26T18:13:29.395Z,8.33
2022-08-26T18:15:56.429Z,9.10
2022-08-26T18:18:23.412Z,8.43
2022-08-26T18:20:51.889Z,8.27
2022-08-26T18:23:24.743Z,9.03
2022-08-26T18:25:53.880Z,8.70
2022-08-26T18:28:21.401Z,8.57
2022-08-26T18:30:48.570Z,8.77
2022-08-26T18:33:15.762Z,8.17
2022-08-26T18:35:44.354Z,7.70
2022-08-26T18:38:13.964Z,8.20
2022-08-26T18:40:45.258Z,7.37
2022-08-26T18:43:12.378Z,7.23
2022-08-26T18:45:39.492Z,7.77
2022-08-26T18:48:06.730Z,8.63
2022-08-26T18:50:37.219Z,7.17
2022-08-26T18:53:04.215Z,8.37
2022-08-26T18:55:31.491Z,8.30
2022-08-26T18:57:58.640Z,8.40
2022-08-26T19:00:25.670Z,8.57
2022-08-26T19:02:55.875Z,8.83
2022-08-26T19:05:23.356Z,8.33
2022-08-26T19:07:51.473Z,8.03
2022-08-26T19:10:18.449Z,9.70
2022-08-26T19:12:45.541Z,10.23
2022-08-26T19:15:19.006Z,9.50
2022-08-26T19:17:46.143Z,9.33
2022-08-26T19:20:13.528Z,9.30
2022-08-26T19:22:41.434Z,7.83
2022-08-26T19:25:09.254Z,8.67
2022-08-26T19:27:36.212Z,10.73
2022-08-26T19:30:05.861Z,9.20
2022-08-26T19:32:34.020Z,9.50
2022-08-26T19:35:00.985Z,9.97
2022-08-26T19:37:27.921Z,9.53
2022-08-26T19:39:56.411Z,10.03
2022-08-26T19:42:23.344Z,9.10
2022-08-26T19:45:24.535Z,8.80
2022-08-26T19:47:52.944Z,9.37
2022-08-26T19:50:20.250Z,10.90
2022-08-26T19:52:47.748Z,9.00
2022-08-26T19:55:21.160Z,10.13
2022-08-26T19:57:50.195Z,9.80
2022-08-26T20:00:23.749Z,8.30
2022-08-26T20:02:52.269Z,8.23
2022-08-26T20:05:22.279Z,7.00
2022-08-26T20:07:49.706Z,7.10
2022-08-26T20:10:21.634Z,7.40
2022-08-26T20:12:52.216Z,6.20
2022-08-26T20:15:21.796Z,5.10
2022-08-26T20:17:49.440Z,4.87
2022-08-26T20:20:46.265Z,3.93
2022-08-26T20:23:13.437Z,4.53
2022-08-26T20:25:42.913Z,4.00
2022-08-26T20:28:09.904Z,3.87
2022-08-26T20:30:37.126Z,4.50
2022-08-26T20:33:04.368Z,3.50
2022-08-26T20:35:31.353Z,3.63
2022-08-26T20:37:59.233Z,3.37
2022-08-26T20:40:26.298Z,3.13
2022-08-26T20:42:53.231Z,3.43
2022-08-26T20:45:20.218Z,3.20
2022-08-26T20:47:47.305Z,3.53
2022-08-26T20:50:14.581Z,3.43
2022-08-26T20:52:41.578Z,3.80
2022-08-26T20:55:09.662Z,3.10
2022-08-26T20:57:37.272Z,3.30
2022-08-26T21:00:06.643Z,3.00
2022-08-26T21:02:35.021Z,3.83
2022-08-26T21:05:02.260Z,3.60
2022-08-26T21:07:30.085Z,3.80
2022-08-26T21:09:57.833Z,3.37
2022-08-26T21:12:26.679Z,4.17
2022-08-26T21:14:53.722Z,3.73
2022-08-26T21:17:20.720Z,4.10
2022-08-26T21:19:48.185Z,3.63
2022-08-26T21:22:15.726Z,4.30
2022-08-26T21:24:42.854Z,3.60
2022-08-26T21:27:09.945Z,4.13
2022-08-26T21:29:37.281Z,4.20
2022-08-26T21:32:05.182Z,4.47
2022-08-26T21:34:32.626Z,4.60
2022-08-26T21:36:59.661Z,4.83
2022-08-26T21:39:26.794Z,4.43
2022-08-26T21:41:53.967Z,3.90
2022-08-26T21:44:21.498Z,4.70
2022-08-26T21:46:48.996Z,4.30
2022-08-26T21:49:16.845Z,5.07
2022-08-26T21:51:47.511Z,4.33
2022-08-26T21:54:15.808Z,4.20
2022-08-26T21:56:46.981Z,4.30
2022-08-26T21:59:17.593Z,4.40
2022-08-26T22:01:44.736Z,4.03
2022-08-26T22:04:12.113Z,4.67
2022-08-26T22:06:46.644Z,4.90
2022-08-26T22:09:17.822Z,4.73
2022-08-26T22:11:46.386Z,4.37
2022-08-26T22:14:15.201Z,4.40
2022-08-26T22:16:42.231Z,5.20
2022-08-26T22:19:17.929Z,4.83
2022-08-26T22:21:45.260Z,5.27
2022-08-26T22:24:12.510Z,6.03
2022-08-26T22:26:39.714Z,5.37
2022-08-26T22:29:07.706Z,6.50
2022-08-26T22:31:37.497Z,6.40
2022-08-26T22:34:09.735Z,6.80
2022-08-26T22:36:43.953Z,6.73
2022-08-26T22:39:14.656Z,6.77
2022-08-26T22:41:43.663Z,7.40
2022-08-26T22:44:11.711Z,7.40
2022-08-26T22:46:40.183Z,7.20
2022-08-26T22:49:10.498Z,6.90
2022-08-26T22:51:37.747Z,7.70
2022-08-26T22:54:06.412Z,8.50
2022-08-26T22:56:33.706Z,8.43
2022-08-26T22:59:00.924Z,8.03
2022-08-26T23:01:28.057Z,8.00
2022-08-26T23:03:55.121Z,8.40
2022-08-26T23:06:22.111Z,8.80
2022-08-26T23:08:49.374Z,7.43
2022-08-26T23:11:16.519Z,8.87
2022-08-26T23:13:43.619Z,9.30
2022-08-26T23:16:12.501Z,8.43
2022-08-26T23:18:41.488Z,8.17
2022-08-26T23:21:09.243Z,9.70
2022-08-26T23:23:36.605Z,8.60
2022-08-26T23:26:07.042Z,7.60
2022-08-26T23:28:37.219Z,9.23
2022-08-26T23:31:05.681Z,8.40
2022-08-26T23:33:51.313Z,8.80
2022-08-26T23:36:22.532Z,8.07
2022-08-26T23:38:52.468Z,8.30
2022-08-26T23:41:24.114Z,7.57
2022-08-26T23:43:51.806Z,8.77
2022-08-26T23:46:19.854Z,8.03
2022-08-26T23:48:47.499Z,8.37
2022-08-26T23:51:33.265Z,9.63
2022-08-26T23:54:00.378Z,8.10
2022-08-26T23:56:27.562Z,7.97
2022-08-26T23:58:56.513Z,8.27
